createdAt,value
2022-10-16T00:00:58.782Z,5.90
2022-10-16T00:03:30.775Z,6.03
2022-10-16T00:06:03.927Z,6.88
2022-10-16T00:08:36.553Z,6.53
2022-10-16T00:11:11.117Z,6.30
2022-10-16T00:13:46.105Z,7.80
2022-10-16T00:16:19.393Z,7.93
2022-10-16T00:18:51.406Z,7.70
2022-10-16T00:21:28.349Z,9.65
2022-10-16T00:24:05.766Z,13.23
2022-10-16T00:26:39.539Z,6.40
2022-10-16T00:29:11.596Z,4.35
2022-10-16T00:31:43.506Z,5.60
2022-10-16T00:34:15.560Z,4.63
2022-10-16T00:36:47.850Z,8.63
2022-10-16T00:39:20.619Z,5.18
2022-10-16T00:41:52.661Z,8.50
2022-10-16T00:44:56.863Z,5.22
2022-10-16T00:47:50.077Z,7.75
2022-10-16T00:50:35.879Z,3.08
2022-10-16T00:53:08.087Z,2.95
2022-10-16T00:55:42.489Z,7.18
2022-10-16T00:58:14.714Z,4.05
2022-10-16T01:00:46.733Z,4.18
2022-10-16T01:03:34.346Z,4.40
2022-10-16T01:09:23.218Z,8.90
2022-10-16T01:12:20.969Z,5.05
2022-10-16T01:18:39.207Z,7.00
2022-10-16T01:21:23.953Z,10.40
2022-10-16T01:24:19.637Z,5.80
2022-10-16T01:27:08.626Z,4.00
2022-10-16T01:29:54.176Z,3.97
2022-10-16T01:32:39.333Z,12.02
2022-10-16T01:35:24.390Z,5.70
2022-10-16T01:38:22.659Z,4.15
2022-10-16T01:41:22.159Z,6.38
2022-10-16T01:44:12.912Z,8.87
2022-10-16T01:46:50.069Z,5.25
2022-10-16T01:49:24.527Z,5.10
2022-10-16T01:54:36.695Z,6.43
2022-10-16T01:57:09.648Z,6.25
2022-10-16T01:59:52.823Z,5.93
2022-10-16T02:02:29.663Z,6.22
2022-10-16T02:05:32.538Z,8.55
2022-10-16T02:08:05.804Z,8.15
2022-10-16T02:10:38.923Z,9.07
2022-10-16T02:13:23.254Z,9.85
2022-10-16T02:15:55.208Z,5.22
2022-10-16T02:18:30.319Z,16.75
2022-10-16T02:21:24.825Z,6.63
2022-10-16T02:24:12.842Z,8.35
2022-10-16T02:27:12.992Z,3.22
2022-10-16T02:29:51.516Z,8.95
2022-10-16T02:32:31.581Z,8.65
2022-10-16T02:35:05.447Z,7.15
2022-10-16T02:37:39.676Z,7.75
2022-10-16T02:40:12.373Z,8.10
2022-10-16T02:42:44.825Z,10.40
2022-10-16T02:45:16.779Z,9.43
2022-10-16T02:47:49.530Z,9.65
2022-10-16T02:50:21.805Z,6.05
2022-10-16T02:52:53.986Z,7.10
2022-10-16T02:55:25.928Z,6.38
2022-10-16T02:57:58.111Z,6.63
2022-10-16T03:00:30.127Z,7.50
2022-10-16T03:03:02.119Z,7.35
2022-10-16T03:05:34.127Z,10.95
2022-10-16T03:08:06.200Z,6.57
2022-10-16T03:10:38.198Z,5.53
2022-10-16T03:13:10.217Z,5.18
2022-10-16T03:15:42.137Z,8.82
2022-10-16T03:18:14.212Z,7.65
2022-10-16T03:20:46.251Z,9.25
2022-10-16T03:23:18.383Z,7.35
2022-10-16T03:25:50.391Z,6.63
2022-10-16T03:28:22.515Z,8.10
2022-10-16T03:30:54.465Z,10.80
2022-10-16T03:33:26.470Z,8.02
2022-10-16T03:35:58.483Z,4.18
2022-10-16T03:38:30.496Z,6.05
2022-10-16T03:41:02.626Z,7.20
2022-10-16T03:43:34.810Z,7.07
2022-10-16T03:46:06.762Z,7.65
2022-10-16T03:48:38.750Z,10.88
2022-10-16T03:51:10.820Z,10.77
2022-10-16T03:53:42.805Z,9.45
2022-10-16T03:56:14.713Z,6.60
2022-10-16T03:58:46.719Z,13.73
2022-10-16T04:01:18.695Z,9.50
2022-10-16T04:03:50.706Z,10.90
2022-10-16T04:06:22.755Z,10.88
2022-10-16T04:08:54.698Z,14.10
2022-10-16T04:11:26.580Z,11.02
2022-10-16T04:13:58.625Z,9.30
2022-10-16T04:16:30.608Z,14.18
2022-10-16T04:19:03.104Z,15.77
2022-10-16T04:21:38.274Z,12.30
2022-10-16T04:24:11.671Z,16.77
2022-10-16T04:26:43.588Z,11.93
2022-10-16T04:29:15.492Z,11.23
2022-10-16T04:31:48.057Z,14.27
2022-10-16T04:34:20.010Z,13.70
2022-10-16T04:36:51.903Z,20.17
2022-10-16T04:39:23.826Z,17.25
2022-10-16T04:41:55.715Z,13.13
2022-10-16T04:44:27.668Z,13.02
2022-10-16T04:46:59.588Z,15.52
2022-10-16T04:49:31.574Z,16.25
2022-10-16T04:52:03.660Z,12.25
2022-10-16T04:54:35.714Z,19.13
2022-10-16T04:57:07.692Z,16.48
2022-10-16T04:59:39.647Z,16.38
2022-10-16T05:02:11.533Z,20.52
2022-10-16T05:04:43.475Z,27.20
2022-10-16T05:07:15.367Z,19.17
2022-10-16T05:09:47.333Z,22.30
2022-10-16T05:12:21.516Z,20.98
2022-10-16T05:14:53.498Z,19.42
2022-10-16T05:17:28.909Z,18.85
2022-10-16T05:20:01.141Z,17.48
2022-10-16T05:22:33.135Z,20.30
2022-10-16T05:25:05.675Z,16.95
2022-10-16T05:27:37.738Z,22.15
2022-10-16T05:30:12.394Z,18.40
2022-10-16T05:32:52.159Z,21.98
2022-10-16T05:35:24.204Z,21.03
2022-10-16T05:37:56.215Z,16.73
2022-10-16T05:40:28.151Z,16.05
2022-10-16T05:43:00.045Z,17.83
2022-10-16T05:45:32.228Z,18.55
2022-10-16T05:48:04.437Z,23.30
2022-10-16T05:50:36.393Z,20.02
2022-10-16T05:53:08.335Z,18.23
2022-10-16T05:55:40.290Z,22.98
2022-10-16T05:58:12.187Z,22.67
2022-10-16T06:00:44.205Z,22.63
2022-10-16T06:03:16.189Z,22.67
2022-10-16T06:05:48.111Z,24.13
2022-10-16T06:08:22.731Z,14.90
2022-10-16T06:11:10.886Z,24.35
2022-10-16T06:13:43.669Z,20.42
2022-10-16T06:16:15.709Z,27.48
2022-10-16T06:18:47.863Z,20.58
2022-10-16T06:21:26.014Z,17.58
2022-10-16T06:23:58.969Z,14.10
2022-10-16T06:26:32.714Z,19.85
2022-10-16T06:29:04.709Z,15.63
2022-10-16T06:31:36.752Z,19.85
2022-10-16T06:34:12.569Z,22.35
2022-10-16T06:36:44.579Z,13.48
2022-10-16T06:39:16.508Z,17.65
2022-10-16T06:41:48.463Z,16.63
2022-10-16T06:44:20.584Z,20.13
2022-10-16T06:46:52.622Z,17.98
2022-10-16T06:49:24.885Z,14.60
2022-10-16T06:51:56.852Z,19.27
2022-10-16T06:54:29.373Z,13.57
2022-10-16T06:57:02.833Z,19.58
2022-10-16T06:59:34.741Z,11.57
2022-10-16T07:02:08.088Z,14.60
2022-10-16T07:04:40.012Z,12.35
2022-10-16T07:07:11.978Z,13.60
2022-10-16T07:09:43.878Z,21.48
2022-10-16T07:12:15.814Z,13.07
2022-10-16T07:14:47.815Z,14.30
2022-10-16T07:17:19.706Z,13.82
2022-10-16T07:19:54.197Z,14.40
2022-10-16T07:22:26.354Z,18.50
2022-10-16T07:24:58.599Z,15.68
2022-10-16T07:27:30.584Z,16.92
2022-10-16T07:30:05.098Z,20.42
2022-10-16T07:32:40.232Z,14.85
2022-10-16T07:35:12.199Z,11.43
2022-10-16T07:37:47.861Z,10.65
2022-10-16T07:40:19.812Z,12.82
2022-10-16T07:42:51.746Z,8.70
2022-10-16T07:45:23.679Z,10.25
2022-10-16T07:47:56.530Z,13.98
2022-10-16T07:50:28.481Z,16.33
2022-10-16T07:53:00.391Z,15.43
2022-10-16T07:55:32.316Z,9.23
2022-10-16T07:58:05.001Z,11.38
2022-10-16T08:00:38.434Z,20.17
2022-10-16T08:03:10.358Z,9.68
2022-10-16T08:05:42.412Z,9.68
2022-10-16T08:08:19.164Z,10.13
2022-10-16T08:10:51.140Z,9.32
2022-10-16T08:13:23.602Z,11.95
2022-10-16T08:15:56.331Z,10.52
2022-10-16T08:18:28.413Z,9.27
2022-10-16T08:21:01.406Z,8.40
2022-10-16T08:23:34.024Z,6.53
2022-10-16T08:26:08.822Z,8.52
2022-10-16T08:28:40.886Z,6.57
2022-10-16T08:34:07.904Z,8.57
2022-10-16T08:36:40.028Z,10.45
2022-10-16T08:39:12.056Z,6.53
2022-10-16T08:42:34.503Z,5.55
2022-10-16T08:45:20.989Z,8.43
2022-10-16T08:48:24.219Z,8.20
2022-10-16T08:50:56.525Z,7.25
2022-10-16T08:53:59.527Z,8.18
2022-10-16T08:56:35.192Z,5.90
2022-10-16T08:59:12.206Z,7.13
2022-10-16T09:01:51.295Z,9.18
2022-10-16T09:04:57.449Z,7.68
2022-10-16T09:07:39.836Z,3.42
2022-10-16T09:10:36.152Z,6.95
2022-10-16T09:13:49.988Z,9.00
2022-10-16T09:16:38.098Z,3.95
2022-10-16T09:20:04.887Z,5.28
2022-10-16T09:22:37.284Z,7.07
2022-10-16T09:25:27.400Z,4.30
2022-10-16T09:27:59.569Z,5.32
2022-10-16T09:30:31.612Z,5.80
2022-10-16T09:33:04.082Z,8.48
2022-10-16T09:35:53.004Z,7.60
2022-10-16T09:38:34.352Z,3.15
2022-10-16T09:41:23.345Z,5.43
2022-10-16T09:44:01.537Z,4.85
2022-10-16T09:46:36.310Z,13.70
2022-10-16T09:49:27.084Z,6.43
2022-10-16T09:52:15.812Z,9.70
2022-10-16T09:54:56.100Z,4.32
2022-10-16T10:00:11.008Z,4.30
2022-10-16T10:02:43.041Z,7.70
2022-10-16T10:05:29.942Z,6.43
2022-10-16T10:08:09.442Z,6.15
2022-10-16T10:10:44.097Z,9.83
2022-10-16T10:13:24.060Z,4.93
2022-10-16T10:15:56.249Z,8.10
2022-10-16T10:18:28.291Z,8.25
2022-10-16T10:21:02.588Z,11.52
2022-10-16T10:23:34.604Z,3.95
2022-10-16T10:26:22.393Z,9.98
2022-10-16T10:29:12.453Z,4.18
2022-10-16T10:32:15.878Z,2.90
2022-10-16T10:35:14.270Z,6.68
2022-10-16T10:37:55.149Z,3.10
2022-10-16T10:40:51.119Z,7.63
2022-10-16T10:43:28.991Z,5.55
2022-10-16T10:46:06.040Z,8.57
2022-10-16T10:49:16.371Z,5.38
2022-10-16T10:54:51.712Z,7.13
2022-10-16T10:57:29.580Z,5.88
2022-10-16T11:00:47.915Z,4.72
2022-10-16T11:04:05.136Z,5.43
2022-10-16T11:06:51.730Z,10.30
2022-10-16T11:09:33.756Z,5.78
2022-10-16T11:12:13.326Z,3.53
2022-10-16T11:15:11.716Z,4.40
2022-10-16T11:17:49.888Z,3.22
2022-10-16T11:20:26.961Z,2.15
2022-10-16T11:23:32.314Z,5.45
2022-10-16T11:26:14.652Z,8.27
2022-10-16T11:28:59.386Z,6.05
2022-10-16T11:31:45.088Z,4.47
2022-10-16T11:34:27.440Z,3.58
2022-10-16T11:37:11.868Z,6.90
2022-10-16T11:39:45.411Z,4.88
2022-10-16T11:42:43.905Z,8.95
2022-10-16T11:45:51.258Z,3.83
2022-10-16T11:49:00.720Z,4.05
2022-10-16T11:51:46.733Z,2.77
2022-10-16T11:54:48.673Z,4.00
2022-10-16T11:57:37.840Z,5.97
2022-10-16T12:00:41.151Z,4.18
2022-10-16T12:03:32.307Z,4.13
2022-10-16T12:06:37.462Z,6.07
2022-10-16T12:09:38.980Z,4.22
2022-10-16T12:12:37.125Z,8.05
2022-10-16T12:15:57.578Z,5.85
2022-10-16T12:18:27.322Z,5.10
2022-10-16T12:21:05.665Z,4.47
2022-10-16T12:23:53.653Z,7.50
2022-10-16T12:26:31.821Z,7.28
2022-10-16T12:29:24.470Z,9.27
2022-10-16T12:31:58.326Z,7.90
2022-10-16T12:34:40.356Z,7.43
2022-10-16T12:37:33.305Z,2.63
2022-10-16T12:40:37.401Z,4.32
2022-10-16T12:43:38.589Z,3.97
2022-10-16T12:46:10.432Z,4.53
2022-10-16T12:48:49.441Z,4.93
2022-10-16T12:51:33.965Z,8.88
2022-10-16T12:54:31.574Z,5.03
2022-10-16T12:57:42.424Z,7.82
2022-10-16T13:00:33.308Z,5.55
2022-10-16T13:03:49.429Z,10.52
2022-10-16T13:06:52.180Z,6.45
2022-10-16T13:09:59.483Z,6.25
2022-10-16T13:12:56.907Z,9.27
2022-10-16T13:15:51.640Z,9.90
2022-10-16T13:19:11.186Z,9.23
2022-10-16T13:22:03.338Z,3.87
2022-10-16T13:24:58.256Z,12.10
2022-10-16T13:27:57.757Z,5.38
2022-10-16T13:30:44.972Z,6.37
2022-10-16T13:33:36.107Z,5.18
2022-10-16T13:36:08.297Z,7.03
2022-10-16T13:38:40.286Z,4.20
2022-10-16T13:41:18.672Z,5.95
2022-10-16T13:43:54.222Z,7.00
2022-10-16T13:46:27.451Z,7.03
2022-10-16T13:49:13.967Z,5.15
2022-10-16T13:51:57.896Z,7.97
2022-10-16T13:54:30.031Z,6.78
2022-10-16T13:57:26.204Z,8.48
2022-10-16T13:59:59.358Z,6.65
2022-10-16T14:02:40.877Z,10.13
2022-10-16T14:05:15.979Z,8.27
2022-10-16T14:07:52.935Z,9.40
2022-10-16T14:10:31.352Z,7.88
2022-10-16T14:13:07.070Z,5.22
2022-10-16T14:15:39.237Z,9.23
2022-10-16T14:18:23.069Z,7.07
2022-10-16T14:20:58.415Z,10.05
2022-10-16T14:23:38.481Z,9.40
2022-10-16T14:26:10.343Z,11.80
2022-10-16T14:28:44.384Z,7.07
2022-10-16T14:31:34.588Z,4.65
2022-10-16T14:34:25.659Z,8.57
2022-10-16T14:37:02.010Z,4.75
2022-10-16T14:39:35.124Z,6.10
2022-10-16T14:42:18.802Z,8.70
2022-10-16T14:44:56.889Z,5.03
2022-10-16T14:47:29.660Z,26.38
2022-10-16T14:50:01.889Z,7.25
2022-10-16T14:52:34.746Z,6.03
2022-10-16T14:55:08.314Z,5.28
2022-10-16T14:57:40.702Z,6.97
2022-10-16T15:00:24.764Z,8.75
2022-10-16T15:02:56.773Z,9.02
2022-10-16T15:05:29.145Z,6.22
2022-10-16T15:08:01.146Z,3.75
2022-10-16T15:10:40.353Z,11.90
2022-10-16T15:13:15.399Z,7.22
2022-10-16T15:15:50.349Z,5.55
2022-10-16T15:18:23.233Z,7.10
2022-10-16T15:20:55.267Z,11.30
2022-10-16T15:23:27.432Z,8.70
2022-10-16T15:26:00.496Z,11.00
2022-10-16T15:28:32.477Z,9.15
2022-10-16T15:31:06.456Z,4.82
2022-10-16T15:33:39.953Z,10.00
2022-10-16T15:36:12.353Z,5.53
2022-10-16T15:38:45.076Z,11.10
2022-10-16T15:41:17.037Z,14.13
2022-10-16T15:43:52.829Z,11.25
2022-10-16T15:46:25.611Z,9.73
2022-10-16T15:48:59.519Z,6.28
2022-10-16T15:51:34.141Z,9.50
2022-10-16T15:54:06.526Z,7.22
2022-10-16T15:56:38.825Z,7.55
2022-10-16T15:59:10.754Z,5.82
2022-10-16T16:01:44.257Z,4.75
2022-10-16T16:04:42.233Z,8.70
2022-10-16T16:07:10.030Z,9.30
2022-10-16T16:09:42.067Z,13.23
2022-10-16T16:12:14.015Z,8.02
2022-10-16T16:14:47.235Z,13.85
2022-10-16T16:17:19.421Z,9.80
2022-10-16T16:19:52.146Z,4.68
2022-10-16T16:22:24.235Z,10.52
2022-10-16T16:24:56.247Z,8.38
2022-10-16T16:27:31.010Z,12.15
2022-10-16T16:30:04.634Z,9.00
2022-10-16T16:32:36.950Z,7.68
2022-10-16T16:35:09.094Z,13.52
2022-10-16T16:37:41.093Z,8.25
2022-10-16T16:40:13.058Z,7.00
2022-10-16T16:42:45.091Z,12.25
2022-10-16T16:45:17.146Z,10.50
2022-10-16T16:47:49.135Z,7.88
2022-10-16T16:50:21.061Z,7.63
2022-10-16T16:52:53.056Z,12.07
2022-10-16T16:55:24.972Z,8.20
2022-10-16T16:57:57.820Z,15.55
2022-10-16T17:00:30.144Z,14.15
2022-10-16T17:03:02.118Z,12.05
2022-10-16T17:05:34.063Z,14.10
2022-10-16T17:08:09.609Z,12.18
2022-10-16T17:10:45.249Z,19.50
2022-10-16T17:13:17.443Z,22.60
2022-10-16T17:15:51.822Z,19.30
2022-10-16T17:18:25.266Z,18.00
2022-10-16T17:21:02.068Z,15.23
2022-10-16T17:23:35.400Z,16.13
2022-10-16T17:26:16.273Z,14.38
2022-10-16T17:28:53.785Z,17.42
2022-10-16T17:31:32.981Z,16.15
2022-10-16T17:34:08.062Z,14.20
2022-10-16T17:36:44.291Z,15.35
2022-10-16T17:39:20.545Z,14.50
2022-10-16T17:41:52.487Z,14.18
2022-10-16T17:44:24.524Z,18.80
2022-10-16T17:46:56.525Z,17.90
2022-10-16T17:49:28.649Z,16.85
2022-10-16T17:52:03.078Z,13.50
2022-10-16T17:54:35.046Z,18.67
2022-10-16T17:57:07.011Z,19.17
2022-10-16T17:59:38.968Z,20.23
2022-10-16T18:02:11.996Z,19.00
2022-10-16T18:04:44.174Z,21.63
2022-10-16T18:07:16.996Z,18.15
2022-10-16T18:10:09.894Z,24.05
2022-10-16T18:12:41.317Z,24.42
2022-10-16T18:15:13.458Z,20.80
2022-10-16T18:17:45.408Z,17.75
2022-10-16T18:20:17.525Z,16.30
2022-10-16T18:22:49.591Z,21.10
2022-10-16T18:25:21.580Z,21.75
2022-10-16T18:27:53.488Z,23.25
2022-10-16T18:30:25.442Z,24.23
2022-10-16T18:32:57.383Z,28.95
2022-10-16T18:35:29.352Z,29.75
2022-10-16T18:38:01.263Z,25.65
2022-10-16T18:40:36.007Z,21.10
2022-10-16T18:43:07.994Z,23.60
2022-10-16T18:45:40.132Z,22.92
2022-10-16T18:48:12.153Z,23.65
2022-10-16T18:50:44.044Z,35.15
2022-10-16T18:53:16.086Z,27.70
2022-10-16T18:55:54.239Z,28.10
2022-10-16T18:58:26.168Z,34.30
2022-10-16T19:01:05.293Z,28.35
2022-10-16T19:03:38.876Z,28.95
2022-10-16T19:06:15.224Z,29.80
2022-10-16T19:08:47.164Z,30.50
2022-10-16T19:11:22.387Z,31.40
2022-10-16T19:13:56.815Z,25.27
2022-10-16T19:16:32.792Z,25.40
2022-10-16T19:19:07.920Z,26.23
2022-10-16T19:21:40.983Z,24.38
2022-10-16T19:24:15.507Z,23.58
2022-10-16T19:26:48.400Z,25.10
2022-10-16T19:29:20.467Z,22.33
2022-10-16T19:31:52.379Z,24.13
2022-10-16T19:34:24.333Z,17.88
2022-10-16T19:36:56.764Z,22.15
2022-10-16T19:39:28.713Z,21.30
2022-10-16T19:42:00.849Z,21.63
2022-10-16T19:44:32.864Z,19.58
2022-10-16T19:47:04.885Z,21.17
2022-10-16T19:49:36.872Z,21.25
2022-10-16T19:52:08.845Z,22.20
2022-10-16T19:54:40.892Z,22.95
2022-10-16T19:57:12.968Z,17.17
2022-10-16T19:59:45.799Z,20.65
2022-10-16T20:02:17.883Z,22.35
2022-10-16T20:04:49.840Z,19.35
2022-10-16T20:07:23.072Z,20.23
2022-10-16T20:09:54.986Z,19.42
2022-10-16T20:12:26.943Z,19.83
2022-10-16T20:14:58.934Z,20.45
2022-10-16T20:17:30.983Z,16.58
2022-10-16T20:20:02.986Z,22.05
2022-10-16T20:22:34.884Z,21.02
2022-10-16T20:25:10.005Z,17.23
2022-10-16T20:27:42.225Z,16.63
2022-10-16T20:30:14.163Z,14.25
2022-10-16T20:32:46.234Z,21.23
2022-10-16T20:35:18.473Z,18.73
2022-10-16T20:37:50.698Z,20.20
2022-10-16T20:40:22.703Z,16.92
2022-10-16T20:42:54.694Z,21.83
2022-10-16T20:45:29.840Z,22.15
2022-10-16T20:48:01.792Z,22.05
2022-10-16T20:50:34.064Z,23.27
2022-10-16T20:53:07.163Z,24.23
2022-10-16T20:55:39.098Z,18.77
2022-10-16T20:58:12.664Z,17.88
2022-10-16T21:00:44.851Z,16.92
2022-10-16T21:03:16.909Z,23.55
2022-10-16T21:05:48.865Z,21.80
2022-10-16T21:08:20.775Z,18.27
2022-10-16T21:10:52.694Z,25.95
2022-10-16T21:13:28.178Z,18.67
2022-10-16T21:16:03.596Z,15.65
2022-10-16T21:18:35.603Z,25.15
2022-10-16T21:21:07.591Z,19.05
2022-10-16T21:23:39.560Z,15.02
2022-10-16T21:26:11.501Z,18.73
2022-10-16T21:28:43.552Z,18.95
2022-10-16T21:31:19.801Z,15.90
2022-10-16T21:33:52.869Z,21.50
2022-10-16T21:36:28.808Z,19.77
2022-10-16T21:39:09.172Z,28.35
2022-10-16T21:44:15.039Z,25.27
2022-10-16T21:46:47.366Z,24.75
2022-10-16T21:49:19.802Z,24.70
2022-10-16T21:51:51.922Z,22.75
2022-10-16T21:54:24.662Z,19.25
2022-10-16T21:56:57.033Z,17.38
2022-10-16T21:59:29.069Z,14.07
2022-10-16T22:02:03.257Z,13.85
2022-10-16T22:04:35.440Z,14.77
2022-10-16T22:07:07.443Z,13.00
2022-10-16T22:09:39.334Z,12.95
2022-10-16T22:12:11.238Z,14.07
2022-10-16T22:14:43.149Z,14.77
2022-10-16T22:17:15.098Z,14.25
2022-10-16T22:19:47.065Z,16.63
2022-10-16T22:22:19.015Z,14.68
2022-10-16T22:24:50.925Z,12.88
2022-10-16T22:27:23.313Z,15.60
2022-10-16T22:29:55.199Z,13.48
2022-10-16T22:32:27.089Z,18.92
2022-10-16T22:34:59.014Z,14.57
2022-10-16T22:37:30.924Z,9.40
2022-10-16T22:40:02.877Z,16.13
2022-10-16T22:42:34.794Z,15.90
2022-10-16T22:45:07.178Z,10.27
2022-10-16T22:47:39.101Z,11.73
2022-10-16T22:50:11.025Z,16.58
2022-10-16T22:52:42.968Z,15.23
2022-10-16T22:55:14.956Z,13.73
2022-10-16T22:57:46.916Z,12.95
2022-10-16T23:00:20.032Z,10.48
2022-10-16T23:02:52.018Z,12.63
2022-10-16T23:05:23.959Z,14.50
2022-10-16T23:07:55.872Z,10.65
2022-10-16T23:10:29.874Z,14.07
2022-10-16T23:13:01.835Z,18.40
2022-10-16T23:15:33.802Z,16.67
2022-10-16T23:18:05.774Z,8.52
2022-10-16T23:20:41.329Z,9.82
2022-10-16T23:23:13.222Z,13.05
2022-10-16T23:25:49.694Z,10.23
2022-10-16T23:28:21.649Z,10.93
2022-10-16T23:30:53.571Z,16.15
2022-10-16T23:33:25.477Z,8.07
2022-10-16T23:35:57.398Z,5.93
2022-10-16T23:38:29.477Z,11.70
2022-10-16T23:41:01.748Z,11.05
2022-10-16T23:43:33.876Z,10.65
2022-10-16T23:46:08.800Z,8.43
2022-10-16T23:48:41.375Z,6.28
2022-10-16T23:51:13.548Z,11.70
2022-10-16T23:53:45.556Z,10.57
2022-10-16T23:56:17.504Z,12.52
2022-10-16T23:58:49.558Z,8.65
